Ellsworth, Ohio
Current Conditions -  °F | °C
As of 6:51 PM on Saturday 25 Oct 2014 (Local Time) from KYNG Reporting Station
Few Clouds Few Clouds  
Wind Chill: 62°   Ceiling: Unl
Heat Index: 62°   Visibility: 10mi
Dew Point: 50°   Wind: 8mph
Humidity: 65%   Direction: 310°NW
Pressure: 29.74"   Gusts: NA
Location:  41.02°N, 80.86°W
Report Text: KYNG 252251Z 31007KT 10SM FEW050 17/10 A2974 RMK AO2 PK WND 27027/2152 SLP071 T01670100 $
Loading
Personal Weather Stations






























Interactive Weather Map
Tropical Storm Tracking
New forecast layout! Learn more

10-Day Weather Forecast

Advertisements
Track Severe Weather on mobile